createdAt,value
2022-07-28T00:01:02.838Z,60.00
2022-07-28T00:03:30.673Z,60.00
2022-07-28T00:05:58.669Z,60.00
2022-07-28T00:08:26.470Z,60.00
2022-07-28T00:10:55.629Z,60.10
2022-07-28T00:13:23.413Z,60.20
2022-07-28T00:15:51.268Z,60.20
2022-07-28T00:18:19.093Z,60.30
2022-07-28T00:20:46.856Z,60.30
2022-07-28T00:23:14.603Z,60.40
2022-07-28T00:25:42.636Z,60.50
2022-07-28T00:28:11.739Z,60.40
2022-07-28T00:30:39.580Z,60.30
2022-07-28T00:33:07.417Z,60.30
2022-07-28T00:35:35.425Z,60.20
2022-07-28T00:38:03.311Z,60.30
2022-07-28T00:40:45.722Z,60.10
2022-07-28T00:43:15.183Z,60.20
2022-07-28T00:45:43.425Z,60.20
2022-07-28T00:48:11.188Z,60.20
2022-07-28T00:50:40.601Z,60.10
2022-07-28T00:53:08.965Z,60.20
2022-07-28T00:56:03.035Z,60.10
2022-07-28T00:58:29.288Z,60.20
2022-07-28T01:00:57.507Z,60.20
2022-07-28T01:03:26.436Z,60.30
2022-07-28T01:06:02.450Z,60.40
2022-07-28T01:08:39.847Z,60.40
2022-07-28T01:11:18.295Z,60.20
2022-07-28T01:13:55.358Z,60.20
2022-07-28T01:16:23.707Z,60.10
2022-07-28T01:19:03.425Z,60.10
2022-07-28T01:21:35.965Z,60.20
2022-07-28T01:24:11.877Z,60.20
2022-07-28T01:26:47.825Z,60.30
2022-07-28T01:29:43.824Z,60.40
2022-07-28T01:32:20.010Z,60.50
2022-07-28T01:34:52.097Z,60.60
2022-07-28T01:37:24.555Z,60.60
2022-07-28T01:39:55.643Z,60.70
2022-07-28T01:42:27.416Z,60.70
2022-07-28T01:44:58.983Z,60.60
2022-07-28T01:47:30.456Z,60.50
2022-07-28T01:50:00.743Z,60.40
2022-07-28T01:52:30.961Z,60.20
2022-07-28T01:55:01.559Z,60.40
2022-07-28T01:57:31.986Z,60.30
2022-07-28T02:00:01.777Z,60.40
2022-07-28T02:02:32.524Z,60.40
2022-07-28T02:05:01.858Z,60.40
2022-07-28T02:07:31.250Z,60.40
2022-07-28T02:10:00.219Z,60.50
2022-07-28T02:12:29.947Z,60.50
2022-07-28T02:14:59.381Z,60.50
2022-07-28T02:17:31.655Z,60.50
2022-07-28T02:20:00.320Z,60.50
2022-07-28T02:22:28.894Z,60.50
2022-07-28T02:24:57.349Z,60.50
2022-07-28T02:27:33.616Z,60.40
2022-07-28T02:30:06.540Z,60.40
2022-07-28T02:32:41.022Z,60.40
2022-07-28T02:35:12.508Z,60.40
2022-07-28T02:37:45.158Z,60.20
2022-07-28T02:40:17.333Z,60.40
2022-07-28T02:42:49.673Z,60.50
2022-07-28T02:45:19.436Z,60.50
2022-07-28T02:47:53.012Z,60.60
2022-07-28T02:50:25.439Z,60.60
2022-07-28T02:52:56.338Z,60.80
2022-07-28T02:55:25.163Z,60.80
2022-07-28T02:57:56.790Z,60.90
2022-07-28T03:00:26.171Z,61.00
2022-07-28T03:02:56.645Z,61.00
2022-07-28T03:05:25.142Z,61.00
2022-07-28T03:07:53.709Z,60.90
2022-07-28T03:10:34.043Z,61.00
2022-07-28T03:13:03.424Z,60.90
2022-07-28T03:15:32.151Z,60.90
2022-07-28T03:18:01.497Z,60.80
2022-07-28T03:20:30.307Z,60.70
2022-07-28T03:22:59.107Z,60.70
2022-07-28T03:25:33.561Z,60.80
2022-07-28T03:28:03.818Z,60.90
2022-07-28T03:30:46.583Z,60.80
2022-07-28T03:33:16.280Z,60.60
2022-07-28T03:35:48.643Z,60.60
2022-07-28T03:38:21.775Z,60.60
2022-07-28T03:40:50.951Z,60.70
2022-07-28T03:43:21.813Z,60.70
2022-07-28T03:45:50.316Z,60.70
2022-07-28T03:48:23.362Z,60.80
2022-07-28T03:50:51.186Z,60.70
2022-07-28T03:53:23.835Z,60.90
2022-07-28T03:55:52.485Z,60.90
2022-07-28T03:58:20.568Z,60.80
2022-07-28T04:00:49.434Z,60.80
2022-07-28T04:03:36.408Z,60.70
2022-07-28T04:06:07.722Z,60.80
2022-07-28T04:08:35.512Z,60.70
2022-07-28T04:11:03.340Z,60.60
2022-07-28T04:13:32.212Z,60.70
2022-07-28T04:16:00.493Z,60.60
2022-07-28T04:18:29.609Z,60.70
2022-07-28T04:20:57.406Z,60.60
2022-07-28T04:23:25.261Z,60.60
2022-07-28T04:25:53.082Z,60.80
2022-07-28T04:28:20.865Z,60.80
2022-07-28T04:30:48.832Z,60.90
2022-07-28T04:33:18.546Z,60.80
2022-07-28T04:35:47.843Z,60.80
2022-07-28T04:38:17.890Z,60.70
2022-07-28T04:40:45.841Z,60.70
2022-07-28T04:43:14.037Z,60.70
2022-07-28T04:45:46.745Z,60.60
2022-07-28T04:48:22.774Z,60.70
2022-07-28T04:50:52.692Z,60.60
2022-07-28T04:53:21.058Z,60.60
2022-07-28T04:55:51.487Z,60.60
2022-07-28T04:58:19.579Z,60.70
2022-07-28T05:00:50.341Z,60.60
2022-07-28T05:03:18.780Z,60.50
2022-07-28T05:05:47.123Z,60.60
2022-07-28T05:08:25.971Z,60.70
2022-07-28T05:10:55.008Z,60.80
2022-07-28T05:13:22.829Z,60.90
2022-07-28T05:15:51.259Z,60.90
2022-07-28T05:18:19.160Z,60.80
2022-07-28T05:20:46.956Z,60.70
2022-07-28T05:23:15.735Z,60.70
2022-07-28T05:25:44.928Z,60.70
2022-07-28T05:28:12.714Z,60.90
2022-07-28T05:30:40.516Z,60.90
2022-07-28T05:33:08.504Z,60.90
2022-07-28T05:35:36.370Z,60.90
2022-07-28T05:38:08.957Z,60.90
2022-07-28T05:40:38.729Z,60.90
2022-07-28T05:43:08.473Z,61.00
2022-07-28T05:45:36.423Z,61.00
2022-07-28T05:48:04.340Z,60.80
2022-07-28T05:50:32.470Z,60.90
2022-07-28T05:53:00.338Z,60.90
2022-07-28T05:55:28.249Z,61.00
2022-07-28T05:57:56.047Z,61.10
2022-07-28T06:00:25.248Z,61.10
2022-07-28T06:02:53.434Z,61.20
2022-07-28T06:05:22.827Z,61.20
2022-07-28T06:07:51.670Z,61.20
2022-07-28T06:10:23.775Z,61.10
2022-07-28T06:12:53.818Z,61.20
2022-07-28T06:15:23.491Z,61.10
2022-07-28T06:17:55.198Z,61.00
2022-07-28T06:20:24.439Z,61.10
2022-07-28T06:22:54.931Z,61.10
2022-07-28T06:25:24.498Z,61.20
2022-07-28T06:27:56.105Z,61.20
2022-07-28T06:30:24.651Z,61.40
2022-07-28T06:32:54.795Z,61.30
2022-07-28T06:35:22.910Z,61.50
2022-07-28T06:37:52.212Z,61.40
2022-07-28T06:40:21.524Z,61.50
2022-07-28T06:42:49.931Z,61.50
2022-07-28T06:45:20.679Z,61.50
2022-07-28T06:47:49.310Z,61.40
2022-07-28T06:50:24.713Z,61.40
2022-07-28T06:52:54.665Z,61.40
2022-07-28T06:55:23.119Z,61.50
2022-07-28T06:57:51.020Z,61.50
2022-07-28T07:00:19.387Z,61.50
2022-07-28T07:02:47.309Z,61.60
2022-07-28T07:05:15.706Z,61.50
2022-07-28T07:07:45.687Z,61.60
2022-07-28T07:10:13.845Z,61.60
2022-07-28T07:12:41.882Z,61.70
2022-07-28T07:15:11.113Z,61.80
2022-07-28T07:17:38.979Z,61.80
2022-07-28T07:20:08.083Z,61.70
2022-07-28T07:22:36.256Z,61.80
2022-07-28T07:25:12.694Z,61.70
2022-07-28T07:27:40.505Z,61.60
2022-07-28T07:30:09.967Z,61.60
2022-07-28T07:32:38.587Z,61.60
2022-07-28T07:35:07.753Z,61.60
2022-07-28T07:37:35.624Z,61.70
2022-07-28T07:40:05.127Z,61.70
2022-07-28T07:42:34.415Z,61.70
2022-07-28T07:45:04.300Z,61.70
2022-07-28T07:47:32.090Z,61.80
2022-07-28T07:50:03.951Z,61.90
2022-07-28T07:52:32.596Z,61.90
2022-07-28T07:55:00.422Z,61.90
2022-07-28T07:57:28.362Z,61.90
2022-07-28T07:59:57.530Z,62.00
2022-07-28T08:02:25.403Z,61.90
2022-07-28T08:04:53.368Z,61.90
2022-07-28T08:07:22.037Z,62.00
2022-07-28T08:09:50.311Z,61.90
2022-07-28T08:12:24.828Z,62.00
2022-07-28T08:14:53.212Z,62.00
2022-07-28T08:17:25.912Z,61.90
2022-07-28T08:19:54.467Z,61.80
2022-07-28T08:22:22.349Z,61.70
2022-07-28T08:24:50.123Z,61.70
2022-07-28T08:27:18.015Z,61.70
2022-07-28T08:29:45.921Z,61.80
2022-07-28T08:32:14.249Z,61.90
2022-07-28T08:34:43.453Z,62.00
2022-07-28T08:37:11.451Z,62.10
2022-07-28T08:39:39.264Z,62.00
2022-07-28T08:42:08.365Z,62.70
2022-07-28T08:44:45.562Z,61.90
2022-07-28T08:47:13.862Z,62.10
2022-07-28T08:49:44.214Z,62.20
2022-07-28T08:52:13.728Z,62.10
2022-07-28T08:54:44.611Z,62.20
2022-07-28T08:57:18.555Z,62.10
2022-07-28T08:59:47.524Z,62.20
2022-07-28T09:02:17.142Z,62.10
2022-07-28T09:04:47.291Z,62.10
2022-07-28T09:07:15.852Z,62.00
2022-07-28T09:09:44.642Z,62.10
2022-07-28T09:12:12.524Z,62.00
2022-07-28T09:14:40.476Z,62.00
2022-07-28T09:17:08.467Z,61.80
2022-07-28T09:19:37.608Z,61.80
2022-07-28T09:22:10.120Z,61.60
2022-07-28T09:24:40.424Z,61.40
2022-07-28T09:27:09.780Z,61.40
2022-07-28T09:29:39.592Z,61.30
2022-07-28T09:32:08.462Z,61.30
2022-07-28T09:34:43.460Z,61.50
2022-07-28T09:37:24.812Z,61.50
2022-07-28T09:39:58.781Z,61.40
2022-07-28T09:42:27.088Z,61.20
2022-07-28T09:45:22.348Z,60.90
2022-07-28T09:48:08.507Z,61.00
2022-07-28T09:50:36.470Z,61.00
2022-07-28T09:53:22.121Z,61.10
2022-07-28T09:55:56.484Z,61.10
2022-07-28T09:58:25.473Z,61.20
2022-07-28T10:01:07.618Z,61.20
2022-07-28T10:03:36.360Z,61.40
2022-07-28T10:06:09.285Z,61.30
2022-07-28T10:08:43.937Z,62.10
2022-07-28T10:11:13.722Z,61.30
2022-07-28T10:14:06.804Z,61.40
2022-07-28T10:16:36.783Z,61.30
2022-07-28T10:19:06.873Z,61.40
2022-07-28T10:21:37.148Z,61.60
2022-07-28T10:24:08.634Z,61.50
2022-07-28T10:26:41.655Z,61.50
2022-07-28T10:29:14.895Z,61.70
2022-07-28T10:31:48.592Z,61.60
2022-07-28T10:34:24.483Z,61.70
2022-07-28T10:36:55.417Z,61.70
2022-07-28T10:39:32.025Z,61.50
2022-07-28T10:42:00.426Z,61.50
2022-07-28T10:44:29.325Z,61.50
2022-07-28T10:46:58.771Z,61.40
2022-07-28T10:49:32.639Z,61.40
2022-07-28T10:52:02.626Z,61.40
2022-07-28T10:54:48.053Z,61.40
2022-07-28T10:57:17.452Z,61.10
2022-07-28T11:00:12.349Z,60.90
2022-07-28T11:02:51.239Z,60.80
2022-07-28T11:05:34.250Z,61.40
2022-07-28T11:08:04.507Z,60.70
2022-07-28T11:10:45.140Z,60.90
2022-07-28T11:13:32.976Z,60.90
2022-07-28T11:16:22.060Z,61.00
2022-07-28T11:19:07.780Z,61.10
2022-07-28T11:22:22.881Z,61.10
2022-07-28T11:25:19.513Z,61.10
2022-07-28T11:28:05.612Z,61.30
2022-07-28T11:30:53.215Z,61.40
2022-07-28T11:33:21.799Z,61.50
2022-07-28T11:35:57.458Z,61.60
2022-07-28T11:38:25.605Z,61.70
2022-07-28T11:40:56.040Z,61.60
2022-07-28T11:43:37.589Z,61.60
2022-07-28T11:46:30.223Z,61.70
2022-07-28T11:49:27.846Z,61.60
2022-07-28T11:52:22.931Z,61.60
2022-07-28T11:54:56.085Z,61.60
2022-07-28T11:57:25.994Z,62.40
2022-07-28T12:00:03.188Z,61.60
2022-07-28T12:02:33.156Z,61.50
2022-07-28T12:05:05.635Z,61.50
2022-07-28T12:07:36.317Z,61.40
2022-07-28T12:13:15.517Z,61.20
2022-07-28T12:15:53.012Z,61.20
2022-07-28T12:18:20.880Z,62.10
2022-07-28T12:20:53.715Z,61.30
2022-07-28T12:23:38.597Z,61.30
2022-07-28T12:26:31.192Z,61.30
2022-07-28T12:29:00.075Z,61.20
2022-07-28T12:31:33.299Z,61.10
2022-07-28T12:34:01.649Z,61.10
2022-07-28T12:36:30.149Z,60.90
2022-07-28T12:38:58.194Z,61.00
2022-07-28T12:41:32.515Z,61.00
2022-07-28T12:44:01.274Z,60.90
2022-07-28T12:46:34.649Z,60.80
2022-07-28T12:49:03.257Z,60.80
2022-07-28T12:51:32.419Z,60.80
2022-07-28T12:54:00.346Z,60.80
2022-07-28T12:56:28.340Z,60.70
2022-07-28T12:59:06.736Z,60.80
2022-07-28T13:01:53.212Z,60.70
2022-07-28T13:04:40.149Z,60.70
2022-07-28T13:07:10.679Z,60.70
2022-07-28T13:09:47.083Z,60.70
2022-07-28T13:12:19.424Z,60.50
2022-07-28T13:14:51.899Z,60.60
2022-07-28T13:17:22.948Z,60.50
2022-07-28T13:19:51.637Z,60.40
2022-07-28T13:22:29.619Z,60.40
2022-07-28T13:24:57.935Z,60.40
2022-07-28T13:27:26.264Z,60.30
2022-07-28T13:29:54.564Z,60.00
2022-07-28T13:32:23.808Z,60.00
2022-07-28T13:34:52.375Z,59.80
2022-07-28T13:37:20.838Z,59.80
2022-07-28T13:39:54.140Z,59.70
2022-07-28T13:42:22.845Z,59.70
2022-07-28T13:44:51.751Z,59.70
2022-07-28T13:47:19.643Z,59.70
2022-07-28T13:49:48.876Z,59.50
2022-07-28T13:52:32.990Z,59.50
2022-07-28T13:55:05.782Z,59.50
2022-07-28T13:57:35.829Z,59.60
2022-07-28T14:00:07.679Z,59.60
2022-07-28T14:02:36.639Z,59.60
2022-07-28T14:05:06.727Z,59.70
2022-07-28T14:07:34.503Z,59.60
2022-07-28T14:10:02.392Z,59.60
2022-07-28T14:12:30.346Z,59.40
2022-07-28T14:14:58.178Z,59.40
2022-07-28T14:17:43.392Z,59.50
2022-07-28T14:20:15.307Z,59.40
2022-07-28T14:22:43.694Z,59.40
2022-07-28T14:25:13.431Z,59.40
2022-07-28T14:27:49.358Z,59.30
2022-07-28T14:30:17.178Z,59.30
2022-07-28T14:32:45.042Z,59.10
2022-07-28T14:35:14.439Z,59.00
2022-07-28T14:40:30.481Z,58.80
2022-07-28T14:42:58.353Z,58.90
2022-07-28T14:45:26.165Z,58.90
2022-07-28T14:47:55.343Z,58.80
2022-07-28T14:50:24.979Z,58.70
2022-07-28T14:52:53.463Z,58.80
2022-07-28T14:55:21.367Z,58.70
2022-07-28T14:57:54.601Z,58.70
2022-07-28T15:00:24.533Z,58.60
2022-07-28T15:02:53.622Z,58.50
2022-07-28T15:05:22.157Z,58.50
2022-07-28T15:07:54.292Z,59.10
2022-07-28T15:10:22.052Z,58.50
2022-07-28T15:12:51.866Z,58.40
2022-07-28T15:15:21.183Z,58.40
2022-07-28T15:17:49.049Z,58.40
2022-07-28T15:20:17.112Z,58.40
2022-07-28T15:22:45.105Z,58.40
2022-07-28T15:25:14.421Z,58.30
2022-07-28T15:27:45.389Z,58.30
2022-07-28T15:30:14.198Z,58.30
2022-07-28T15:32:55.723Z,58.30
2022-07-28T15:35:24.522Z,58.30
2022-07-28T15:37:52.294Z,58.30
2022-07-28T15:40:22.091Z,58.20
2022-07-28T15:42:49.975Z,58.20
2022-07-28T15:45:18.104Z,58.20
2022-07-28T15:47:46.003Z,58.20
2022-07-28T15:50:13.819Z,58.10
2022-07-28T15:52:41.622Z,58.10
2022-07-28T15:55:10.279Z,58.50
2022-07-28T15:57:39.677Z,58.00
2022-07-28T16:00:09.028Z,58.00
2022-07-28T16:02:36.970Z,58.00
2022-07-28T16:05:05.700Z,58.00
2022-07-28T16:07:35.064Z,58.50
2022-07-28T16:10:03.574Z,58.00
2022-07-28T16:12:31.349Z,57.90
2022-07-28T16:15:00.578Z,57.90
2022-07-28T16:17:28.390Z,58.00
2022-07-28T16:19:58.631Z,58.10
2022-07-28T16:22:30.313Z,58.10
2022-07-28T16:24:58.257Z,58.20
2022-07-28T16:27:26.079Z,58.10
2022-07-28T16:29:54.018Z,58.20
2022-07-28T16:32:23.122Z,58.20
2022-07-28T16:34:51.770Z,58.30
2022-07-28T16:37:19.951Z,58.30
2022-07-28T16:39:48.613Z,58.30
2022-07-28T16:42:16.788Z,58.30
2022-07-28T16:44:44.609Z,58.30
2022-07-28T16:47:12.603Z,58.40
2022-07-28T16:49:45.505Z,58.30
2022-07-28T16:52:14.681Z,58.30
2022-07-28T16:54:42.727Z,58.40
2022-07-28T16:57:10.663Z,58.30
2022-07-28T16:59:48.312Z,58.40
2022-07-28T17:02:17.532Z,58.40
2022-07-28T17:04:47.096Z,58.50
2022-07-28T17:07:15.203Z,58.50
2022-07-28T17:09:44.174Z,58.50
2022-07-28T17:12:12.346Z,58.40
2022-07-28T17:14:40.118Z,58.40
2022-07-28T17:17:07.931Z,58.40
2022-07-28T17:19:35.814Z,58.40
2022-07-28T17:22:06.993Z,58.30
2022-07-28T17:24:34.932Z,58.30
2022-07-28T17:27:36.623Z,58.30
2022-07-28T17:29:50.481Z,58.30
2022-07-28T17:32:18.695Z,58.30
2022-07-28T17:34:47.536Z,58.30
2022-07-28T17:37:16.650Z,58.30
2022-07-28T17:39:44.578Z,58.30
2022-07-28T17:42:12.411Z,58.20
2022-07-28T17:44:40.205Z,58.20
2022-07-28T17:47:08.265Z,58.20
2022-07-28T17:49:40.900Z,58.10
2022-07-28T17:52:11.366Z,58.10
2022-07-28T17:54:59.055Z,58.20
2022-07-28T17:57:27.684Z,58.10
2022-07-28T17:59:58.258Z,58.20
2022-07-28T18:02:26.175Z,58.10
2022-07-28T18:04:53.970Z,58.10
2022-07-28T18:07:21.715Z,58.10
2022-07-28T18:09:50.889Z,58.10
2022-07-28T18:12:18.687Z,58.20
2022-07-28T18:14:46.435Z,58.20
2022-07-28T18:17:14.198Z,58.20
2022-07-28T18:19:45.385Z,58.10
2022-07-28T18:22:13.557Z,58.10
2022-07-28T18:24:41.337Z,58.20
2022-07-28T18:27:11.315Z,58.20
2022-07-28T18:29:39.299Z,58.20
2022-07-28T18:32:09.894Z,58.30
2022-07-28T18:34:39.058Z,58.20
2022-07-28T18:37:08.940Z,58.20
2022-07-28T18:39:36.730Z,58.10
2022-07-28T18:42:04.891Z,58.10
2022-07-28T18:44:34.029Z,58.10
2022-07-28T18:47:02.383Z,58.20
2022-07-28T18:49:37.756Z,58.20
2022-07-28T18:52:06.573Z,58.20
2022-07-28T18:54:34.423Z,58.20
2022-07-28T18:57:02.194Z,58.20
2022-07-28T18:59:30.028Z,58.20
2022-07-28T19:01:59.604Z,58.30
2022-07-28T19:04:27.572Z,58.30
2022-07-28T19:06:55.721Z,58.30
2022-07-28T19:09:23.531Z,58.30
2022-07-28T19:11:51.349Z,58.40
2022-07-28T19:14:19.556Z,58.50
2022-07-28T19:16:48.843Z,58.50
2022-07-28T19:19:17.957Z,58.50
2022-07-28T19:21:46.095Z,58.50
2022-07-28T19:24:14.491Z,58.60
2022-07-28T19:26:44.510Z,58.70
2022-07-28T19:29:12.638Z,58.70
2022-07-28T19:31:42.846Z,58.70
2022-07-28T19:34:10.733Z,58.70
2022-07-28T19:36:41.616Z,58.50
2022-07-28T19:39:12.220Z,58.50
2022-07-28T19:41:40.514Z,58.40
2022-07-28T19:44:08.325Z,58.40
2022-07-28T19:46:36.238Z,58.30
2022-07-28T19:49:07.069Z,58.40
2022-07-28T19:51:34.862Z,58.70
2022-07-28T19:54:07.250Z,58.70
2022-07-28T19:56:37.392Z,58.60
2022-07-28T19:59:05.343Z,58.60
2022-07-28T20:01:33.555Z,58.90
2022-07-28T20:04:05.150Z,58.80
2022-07-28T20:06:33.701Z,58.70
2022-07-28T20:09:03.433Z,58.70
2022-07-28T20:11:32.708Z,58.70
2022-07-28T20:14:01.296Z,58.70
2022-07-28T20:16:29.434Z,58.40
2022-07-28T20:18:57.873Z,58.30
2022-07-28T20:21:26.148Z,58.30
2022-07-28T20:23:55.289Z,58.30
2022-07-28T20:26:25.863Z,58.30
2022-07-28T20:28:54.522Z,58.30
2022-07-28T20:31:22.683Z,58.30
2022-07-28T20:33:50.520Z,58.30
2022-07-28T20:36:18.329Z,58.30
2022-07-28T20:38:46.163Z,58.30
2022-07-28T20:41:14.235Z,58.30
2022-07-28T20:43:43.340Z,58.30
2022-07-28T20:46:11.304Z,58.30
2022-07-28T20:48:39.231Z,58.30
2022-07-28T20:51:06.999Z,58.30
2022-07-28T20:53:37.421Z,58.20
2022-07-28T20:56:06.776Z,58.30
2022-07-28T20:58:34.518Z,58.30
2022-07-28T21:01:03.888Z,58.20
2022-07-28T21:03:31.709Z,58.30
2022-07-28T21:05:59.498Z,58.10
2022-07-28T21:08:28.000Z,58.10
2022-07-28T21:10:55.821Z,58.10
2022-07-28T21:13:23.592Z,58.20
2022-07-28T21:15:51.582Z,58.10
2022-07-28T21:18:20.806Z,58.20
2022-07-28T21:20:48.559Z,58.30
2022-07-28T21:23:18.276Z,58.30
2022-07-28T21:25:46.551Z,58.40
2022-07-28T21:28:31.713Z,58.50
2022-07-28T21:31:01.466Z,58.50
2022-07-28T21:33:30.750Z,58.40
2022-07-28T21:35:58.568Z,58.40
2022-07-28T21:38:26.433Z,58.40
2022-07-28T21:40:54.271Z,58.30
2022-07-28T21:43:22.068Z,58.30
2022-07-28T21:45:50.128Z,58.50
2022-07-28T21:48:20.048Z,58.60
2022-07-28T21:50:49.238Z,58.60
2022-07-28T21:53:17.530Z,58.70
2022-07-28T21:55:46.116Z,58.70
2022-07-28T21:58:14.372Z,58.70
2022-07-28T22:00:43.025Z,59.30
2022-07-28T22:03:11.178Z,58.70
2022-07-28T22:05:39.044Z,58.70
2022-07-28T22:08:09.340Z,58.70
2022-07-28T22:10:37.743Z,58.80
2022-07-28T22:13:05.669Z,58.90
2022-07-28T22:15:33.495Z,58.90
2022-07-28T22:18:01.596Z,58.90
2022-07-28T22:20:29.461Z,59.00
2022-07-28T22:22:57.544Z,59.00
2022-07-28T22:25:26.710Z,58.90
2022-07-28T22:27:54.538Z,59.00
2022-07-28T22:30:22.508Z,59.00
2022-07-28T22:32:50.340Z,59.10
2022-07-28T22:35:18.174Z,59.00
2022-07-28T22:37:46.203Z,59.00
2022-07-28T22:40:16.063Z,59.10
2022-07-28T22:42:45.888Z,59.00
2022-07-28T22:45:13.971Z,59.00
2022-07-28T22:47:42.420Z,59.00
2022-07-28T22:50:11.491Z,59.00
2022-07-28T22:52:39.659Z,59.00
2022-07-28T22:55:08.939Z,59.10
2022-07-28T22:57:37.417Z,59.00
2022-07-28T23:00:08.633Z,59.10
2022-07-28T23:02:37.274Z,59.10
2022-07-28T23:05:05.806Z,59.10
2022-07-28T23:07:53.554Z,59.00
2022-07-28T23:10:21.469Z,59.10
2022-07-28T23:12:49.468Z,59.10
2022-07-28T23:15:18.672Z,59.20
2022-07-28T23:17:46.597Z,59.20
2022-07-28T23:20:14.494Z,59.20
2022-07-28T23:22:42.261Z,59.20
2022-07-28T23:25:10.747Z,59.20
2022-07-28T23:27:38.627Z,59.20
2022-07-28T23:30:07.691Z,59.20
2022-07-28T23:32:36.791Z,59.20
2022-07-28T23:35:05.993Z,59.20
2022-07-28T23:37:34.360Z,59.20
2022-07-28T23:40:02.376Z,59.10
2022-07-28T23:42:30.159Z,59.20
2022-07-28T23:44:57.908Z,59.20
2022-07-28T23:47:25.655Z,59.20
2022-07-28T23:49:55.367Z,59.10
2022-07-28T23:52:23.123Z,59.20
2022-07-28T23:54:50.894Z,59.20
2022-07-28T23:57:18.838Z,59.30
2022-07-28T23:59:46.694Z,59.30
